Terminal Aerodrome Forecast
Issued by NWS

Home | Current Version | Previous Version | Text Only | Print | Product List | Glossary On
Versions: 1 2 3 4 5 6 7 8 9 10 11 12 13 14 15 16 17 18 19 20 21
000
FTUS43 KBIS 271300 AAB
TAFDIK
TAF AMD
KDIK 271338Z 2714/2812 16011KT P6SM BKN040 OVC080
     FM271500 16012KT P6SM -SN SCT005 OVC015
     FM271630 15014KT 3SM -SN BR BKN005 OVC015
     FM271800 15015KT 6SM -FZRASG BR OVC010
     FM272100 17012KT P6SM OVC015
     FM280200 19010KT P6SM SCT020 BKN070=

USA.gov is the U.S. government's official web portal to all federal, state and local government web resources and services.